createdAt,value
2022-12-11T00:00:56.951Z,98.01
2022-12-11T00:02:29.638Z,97.94
2022-12-11T00:04:01.650Z,97.98
2022-12-11T00:05:33.961Z,98.21
2022-12-11T00:07:06.052Z,98.36
2022-12-11T00:08:38.253Z,98.23
2022-12-11T00:10:10.312Z,98.18
2022-12-11T00:11:42.222Z,98.25
2022-12-11T00:13:14.178Z,98.48
2022-12-11T00:14:46.120Z,98.56
2022-12-11T00:16:20.385Z,98.63
2022-12-11T00:17:56.015Z,98.49
2022-12-11T00:19:28.113Z,98.60
2022-12-11T00:21:05.340Z,98.60
2022-12-11T00:22:37.404Z,98.62
2022-12-11T00:24:09.497Z,98.52
2022-12-11T00:25:46.194Z,98.54
2022-12-11T00:27:18.123Z,98.52
2022-12-11T00:28:54.181Z,98.60
2022-12-11T00:30:26.213Z,98.61
2022-12-11T00:31:58.239Z,98.43
2022-12-11T00:33:30.239Z,98.39
2022-12-11T00:35:02.325Z,98.60
2022-12-11T00:36:34.616Z,98.52
2022-12-11T00:38:06.721Z,98.53
2022-12-11T00:39:40.167Z,98.45
2022-12-11T00:41:12.772Z,98.52
2022-12-11T00:42:44.709Z,98.33
2022-12-11T00:44:16.721Z,98.49
2022-12-11T00:45:49.093Z,98.31
2022-12-11T00:47:21.143Z,98.16
2022-12-11T00:48:53.870Z,98.04
2022-12-11T00:50:25.969Z,98.41
2022-12-11T00:51:58.031Z,98.57
2022-12-11T00:53:30.128Z,98.51
2022-12-11T00:55:02.136Z,98.64
2022-12-11T00:56:35.155Z,98.62
2022-12-11T00:58:07.466Z,98.55
2022-12-11T00:59:39.766Z,98.59
2022-12-11T01:01:15.055Z,98.43
2022-12-11T01:02:47.111Z,98.93
2022-12-11T01:04:19.598Z,99.01
2022-12-11T01:05:56.304Z,98.92
2022-12-11T01:07:28.257Z,98.80
2022-12-11T01:09:18.796Z,98.93
2022-12-11T01:10:50.800Z,99.03
2022-12-11T01:12:25.142Z,98.86
2022-12-11T01:13:57.182Z,98.80
2022-12-11T01:15:41.773Z,98.88
2022-12-11T01:17:14.102Z,98.94
2022-12-11T01:18:46.061Z,98.96
2022-12-11T01:20:19.639Z,98.89
2022-12-11T01:21:51.618Z,98.98
2022-12-11T01:23:23.583Z,99.07
2022-12-11T01:24:55.561Z,98.92
2022-12-11T01:26:27.594Z,98.77
2022-12-11T01:27:59.916Z,98.74
2022-12-11T01:29:32.795Z,98.74
2022-12-11T01:31:12.925Z,98.70
2022-12-11T01:32:45.019Z,98.78
2022-12-11T01:34:17.004Z,98.65
2022-12-11T01:35:49.013Z,98.56
2022-12-11T01:37:24.228Z,98.54
2022-12-11T01:38:56.753Z,98.53
2022-12-11T01:40:28.710Z,98.74
2022-12-11T01:42:01.553Z,98.51
2022-12-11T01:43:33.586Z,98.39
2022-12-11T01:45:35.654Z,98.48
2022-12-11T01:47:08.102Z,98.69
2022-12-11T01:48:42.572Z,98.32
2022-12-11T01:50:14.855Z,98.56
2022-12-11T01:51:57.740Z,98.39
2022-12-11T01:53:35.911Z,98.26
2022-12-11T01:55:10.044Z,98.30
2022-12-11T01:56:44.271Z,98.27
2022-12-11T01:58:17.286Z,98.17
2022-12-11T01:59:49.325Z,98.07
2022-12-11T02:01:27.435Z,98.52
2022-12-11T02:02:59.475Z,98.27
2022-12-11T02:04:32.626Z,98.22
2022-12-11T02:06:05.054Z,98.44
2022-12-11T02:07:47.342Z,98.44
2022-12-11T02:09:25.357Z,98.32
2022-12-11T02:11:16.366Z,98.60
2022-12-11T02:12:55.076Z,98.49
2022-12-11T02:14:48.447Z,98.54
2022-12-11T02:16:32.499Z,98.49
2022-12-11T02:18:34.366Z,98.54
2022-12-11T02:20:22.470Z,98.42
2022-12-11T02:21:55.318Z,98.51
2022-12-11T02:23:48.576Z,98.25
2022-12-11T02:25:37.656Z,98.55
2022-12-11T02:27:35.691Z,98.33
2022-12-11T02:29:09.641Z,98.35
2022-12-11T02:30:43.187Z,98.46
2022-12-11T02:32:24.098Z,98.69
2022-12-11T02:34:05.861Z,98.55
2022-12-11T02:35:41.632Z,98.56
2022-12-11T02:37:19.165Z,98.63
2022-12-11T02:38:52.905Z,98.61
2022-12-11T02:40:27.457Z,98.92
2022-12-11T02:42:00.111Z,98.91
2022-12-11T02:43:33.081Z,98.76
2022-12-11T02:45:06.529Z,98.65
2022-12-11T02:46:38.427Z,98.42
2022-12-11T02:48:11.571Z,98.93
2022-12-11T02:51:17.611Z,99.66
2022-12-11T02:52:51.453Z,99.74
2022-12-11T02:54:28.213Z,99.75
2022-12-11T02:56:13.841Z,100.00
2022-12-11T02:57:59.010Z,100.00
2022-12-11T02:59:39.628Z,100.00
2022-12-11T03:01:11.779Z,100.00
2022-12-11T03:02:44.508Z,100.00
2022-12-11T03:04:16.692Z,100.00
2022-12-11T03:05:51.390Z,100.00
2022-12-11T03:07:26.155Z,100.00
2022-12-11T03:08:58.172Z,100.00
2022-12-11T03:10:30.442Z,100.00
2022-12-11T03:12:02.516Z,100.00
2022-12-11T03:13:34.579Z,100.00
2022-12-11T03:15:14.085Z,100.00
2022-12-11T03:16:57.444Z,100.00
2022-12-11T03:18:44.407Z,100.00
2022-12-11T03:20:19.274Z,100.00
2022-12-11T03:21:59.172Z,100.00
2022-12-11T03:23:36.290Z,100.00
2022-12-11T03:25:13.631Z,100.00
2022-12-11T03:26:56.185Z,100.00
2022-12-11T03:28:54.866Z,100.00
2022-12-11T03:30:29.467Z,100.00
2022-12-11T03:32:29.197Z,99.94
2022-12-11T03:34:04.055Z,99.90
2022-12-11T03:35:40.630Z,99.96
2022-12-11T03:37:13.907Z,99.85
2022-12-11T03:39:00.661Z,99.67
2022-12-11T03:40:34.287Z,99.73
2022-12-11T03:42:08.886Z,99.78
2022-12-11T03:43:41.154Z,100.00
2022-12-11T03:45:13.859Z,100.00
2022-12-11T03:46:46.799Z,100.00
2022-12-11T03:48:19.506Z,100.00
2022-12-11T03:49:52.627Z,100.00
2022-12-11T03:51:25.085Z,100.00
2022-12-11T03:52:57.376Z,99.97
2022-12-11T03:54:29.815Z,99.99
2022-12-11T03:56:03.461Z,99.95
2022-12-11T03:57:37.063Z,99.72
2022-12-11T03:59:09.166Z,99.31
2022-12-11T04:00:41.217Z,99.11
2022-12-11T04:02:13.253Z,99.54
2022-12-11T04:03:45.339Z,99.51
2022-12-11T04:05:17.321Z,99.99
2022-12-11T04:06:49.310Z,99.78
2022-12-11T04:08:25.082Z,99.67
2022-12-11T04:09:57.300Z,99.58
2022-12-11T04:11:34.935Z,99.31
2022-12-11T04:13:07.553Z,99.32
2022-12-11T04:14:58.131Z,99.29
2022-12-11T04:16:30.096Z,99.26
2022-12-11T04:18:20.313Z,99.27
2022-12-11T04:20:10.904Z,99.32
2022-12-11T04:22:01.545Z,98.98
2022-12-11T04:23:52.255Z,98.82
2022-12-11T04:25:24.295Z,98.45
2022-12-11T04:26:56.226Z,98.56
2022-12-11T04:28:28.206Z,98.19
2022-12-11T04:30:00.205Z,98.01
2022-12-11T04:31:32.498Z,98.03
2022-12-11T04:33:04.643Z,97.84
2022-12-11T04:34:36.678Z,98.04
2022-12-11T04:36:09.952Z,98.28
2022-12-11T04:37:42.677Z,98.13
2022-12-11T04:39:14.662Z,98.38
2022-12-11T04:40:46.601Z,98.45
2022-12-11T04:42:18.693Z,98.86
2022-12-11T04:43:50.787Z,98.75
2022-12-11T04:45:22.882Z,99.49
2022-12-11T04:46:55.251Z,99.68
2022-12-11T04:48:27.362Z,99.55
2022-12-11T04:49:59.443Z,99.41
2022-12-11T04:51:31.448Z,99.34
2022-12-11T04:53:03.489Z,99.80
2022-12-11T04:54:35.516Z,100.00
2022-12-11T04:56:13.603Z,100.00
2022-12-11T04:57:45.610Z,100.00
2022-12-11T04:59:17.819Z,100.00
2022-12-11T05:00:49.872Z,100.00
2022-12-11T05:02:21.931Z,100.00
2022-12-11T05:03:54.064Z,100.00
2022-12-11T05:05:26.098Z,100.00
2022-12-11T05:06:58.087Z,100.00
2022-12-11T05:08:30.127Z,100.00
2022-12-11T05:10:02.350Z,100.00
2022-12-11T05:11:34.396Z,100.00
2022-12-11T05:13:06.481Z,100.00
2022-12-11T05:14:38.599Z,100.00
2022-12-11T05:17:45.852Z,100.00
2022-12-11T05:19:17.895Z,100.00
2022-12-11T05:21:02.235Z,100.00
2022-12-11T05:22:34.232Z,100.00
2022-12-11T05:24:06.638Z,100.00
2022-12-11T05:25:38.613Z,100.00
2022-12-11T05:27:13.722Z,100.00
2022-12-11T05:28:46.235Z,100.00
2022-12-11T05:30:18.268Z,100.00
2022-12-11T05:31:50.280Z,99.79
2022-12-11T05:33:22.396Z,99.57
2022-12-11T05:34:54.463Z,99.57
2022-12-11T05:36:29.500Z,99.49
2022-12-11T05:38:01.827Z,99.19
2022-12-11T05:39:33.897Z,99.05
2022-12-11T05:41:07.187Z,99.18
2022-12-11T05:42:39.207Z,99.02
2022-12-11T05:44:13.613Z,99.19
2022-12-11T05:45:45.673Z,99.11
2022-12-11T05:47:20.537Z,99.08
2022-12-11T05:48:56.041Z,99.09
2022-12-11T05:50:31.086Z,99.16
2022-12-11T05:52:03.143Z,99.32
2022-12-11T05:53:36.781Z,99.20
2022-12-11T05:55:10.052Z,99.31
2022-12-11T05:56:42.417Z,99.47
2022-12-11T05:58:14.508Z,99.00
2022-12-11T05:59:46.553Z,98.84
2022-12-11T06:01:21.375Z,99.00
2022-12-11T06:02:53.541Z,98.84
2022-12-11T06:04:25.573Z,98.89
2022-12-11T06:05:57.538Z,99.12
2022-12-11T06:07:29.648Z,99.13
2022-12-11T06:09:02.379Z,99.03
2022-12-11T06:10:34.984Z,98.83
2022-12-11T06:12:07.183Z,99.07
2022-12-11T06:13:39.230Z,98.99
2022-12-11T06:15:11.680Z,99.31
2022-12-11T06:16:43.863Z,99.16
2022-12-11T06:18:15.886Z,99.42
2022-12-11T06:19:47.966Z,99.42
2022-12-11T06:21:22.694Z,99.46
2022-12-11T06:22:54.670Z,99.33
2022-12-11T06:24:26.816Z,100.00
2022-12-11T06:25:58.962Z,99.93
2022-12-11T06:27:31.369Z,100.00
2022-12-11T06:29:08.864Z,99.92
2022-12-11T06:30:42.910Z,99.77
2022-12-11T06:32:15.003Z,99.87
2022-12-11T06:33:47.638Z,99.62
2022-12-11T06:35:19.571Z,99.55
2022-12-11T06:36:51.718Z,99.44
2022-12-11T06:38:24.103Z,99.30
2022-12-11T06:39:56.091Z,99.31
2022-12-11T06:41:28.122Z,99.29
2022-12-11T06:43:00.248Z,99.35
2022-12-11T06:44:32.225Z,99.20
2022-12-11T06:46:05.801Z,99.10
2022-12-11T06:47:37.876Z,99.19
2022-12-11T06:49:09.849Z,99.32
2022-12-11T06:50:41.864Z,99.19
2022-12-11T06:52:18.352Z,99.37
2022-12-11T06:53:55.500Z,99.53
2022-12-11T06:55:27.542Z,99.54
2022-12-11T06:56:59.618Z,99.47
2022-12-11T06:58:31.943Z,99.47
2022-12-11T07:00:04.786Z,99.66
2022-12-11T07:01:36.778Z,99.84
2022-12-11T07:03:10.419Z,99.78
2022-12-11T07:04:42.810Z,99.87
2022-12-11T07:06:15.593Z,99.87
2022-12-11T07:07:47.862Z,99.71
2022-12-11T07:09:20.237Z,100.00
2022-12-11T07:10:52.251Z,100.00
2022-12-11T07:12:24.351Z,100.00
2022-12-11T07:13:59.790Z,100.00
2022-12-11T07:15:33.575Z,100.00
2022-12-11T07:17:07.354Z,100.00
2022-12-11T07:18:41.025Z,100.00
2022-12-11T07:20:13.091Z,100.00
2022-12-11T07:21:45.084Z,100.00
2022-12-11T07:23:17.144Z,100.00
2022-12-11T07:24:49.273Z,100.00
2022-12-11T07:26:22.423Z,100.00
2022-12-11T07:27:54.369Z,100.00
2022-12-11T07:29:26.408Z,100.00
2022-12-11T07:30:58.336Z,100.00
2022-12-11T07:32:30.507Z,100.00
2022-12-11T07:34:05.698Z,100.00
2022-12-11T07:35:38.220Z,100.00
2022-12-11T07:37:10.241Z,100.00
2022-12-11T07:38:42.305Z,99.58
2022-12-11T07:40:14.626Z,98.61
2022-12-11T07:41:47.432Z,98.22
2022-12-11T07:43:19.585Z,97.43
2022-12-11T07:44:51.706Z,96.39
2022-12-11T07:46:27.062Z,95.11
2022-12-11T07:47:59.454Z,94.55
2022-12-11T07:49:33.532Z,93.74
2022-12-11T07:51:28.217Z,94.45
2022-12-11T07:53:00.257Z,93.68
2022-12-11T07:54:32.290Z,93.41
2022-12-11T07:56:04.865Z,92.92
2022-12-11T07:57:37.183Z,92.62
2022-12-11T07:59:09.185Z,92.27
2022-12-11T08:00:41.208Z,92.29
2022-12-11T08:02:13.287Z,92.28
2022-12-11T08:03:46.091Z,92.06
2022-12-11T08:05:18.400Z,92.14
2022-12-11T08:06:50.397Z,91.98
2022-12-11T08:08:22.579Z,91.96
2022-12-11T08:09:54.679Z,91.79
2022-12-11T08:11:27.064Z,91.77
2022-12-11T08:12:59.020Z,93.01
2022-12-11T08:14:31.056Z,92.93
2022-12-11T08:16:08.131Z,92.63
2022-12-11T08:17:40.430Z,93.16
2022-12-11T08:19:13.061Z,93.34
2022-12-11T08:20:45.168Z,93.31
2022-12-11T08:22:17.260Z,93.46
2022-12-11T08:23:49.851Z,93.30
2022-12-11T08:25:21.832Z,94.01
2022-12-11T08:26:54.137Z,93.86
2022-12-11T08:28:27.313Z,93.34
2022-12-11T08:29:59.520Z,93.27
2022-12-11T08:31:31.812Z,93.38
2022-12-11T08:33:03.875Z,93.53
2022-12-11T08:34:35.951Z,94.13
2022-12-11T08:36:10.992Z,94.06
2022-12-11T08:37:43.025Z,93.62
2022-12-11T08:39:15.286Z,93.91
2022-12-11T08:40:47.378Z,93.70
2022-12-11T08:42:19.412Z,94.71
2022-12-11T08:43:55.513Z,95.16
2022-12-11T08:45:27.644Z,95.89
2022-12-11T08:46:59.623Z,95.89
2022-12-11T08:48:31.735Z,95.65
2022-12-11T08:50:04.663Z,95.59
2022-12-11T08:51:36.638Z,96.45
2022-12-11T08:53:08.655Z,96.10
2022-12-11T08:56:20.952Z,96.38
2022-12-11T08:57:53.012Z,97.06
2022-12-11T08:59:25.952Z,96.86
2022-12-11T09:00:58.262Z,96.86
2022-12-11T09:02:30.333Z,96.80
2022-12-11T09:04:02.583Z,96.98
2022-12-11T09:05:35.341Z,96.86
2022-12-11T09:07:07.388Z,96.83
2022-12-11T09:08:39.628Z,97.14
2022-12-11T09:10:11.779Z,97.62
2022-12-11T09:11:43.941Z,97.71
2022-12-11T09:13:15.958Z,97.07
2022-12-11T09:14:48.171Z,97.08
2022-12-11T09:16:22.748Z,96.82
2022-12-11T09:17:54.722Z,96.29
2022-12-11T09:19:31.908Z,96.20
2022-12-11T09:21:09.788Z,95.76
2022-12-11T09:22:43.154Z,95.59
2022-12-11T09:24:15.889Z,94.75
2022-12-11T09:25:48.395Z,94.24
2022-12-11T09:27:21.690Z,94.04
2022-12-11T09:28:55.115Z,93.91
2022-12-11T09:30:27.778Z,93.89
2022-12-11T09:31:59.902Z,93.72
2022-12-11T09:33:31.909Z,93.58
2022-12-11T09:35:04.137Z,93.47
2022-12-11T09:36:36.379Z,93.28
2022-12-11T09:38:08.408Z,93.25
2022-12-11T09:39:40.434Z,93.28
2022-12-11T09:41:39.666Z,92.75
2022-12-11T09:43:30.475Z,92.64
2022-12-11T09:45:04.895Z,92.60
2022-12-11T09:46:39.779Z,92.52
2022-12-11T09:48:13.024Z,92.48
2022-12-11T09:49:45.759Z,92.29
2022-12-11T09:51:40.745Z,92.85
2022-12-11T09:53:22.588Z,93.13
2022-12-11T09:55:00.541Z,93.52
2022-12-11T09:56:50.979Z,93.40
2022-12-11T09:58:31.755Z,93.68
2022-12-11T10:00:28.527Z,93.47
2022-12-11T10:02:15.995Z,93.48
2022-12-11T10:04:13.402Z,93.36
2022-12-11T10:06:08.405Z,93.83
2022-12-11T10:08:04.129Z,94.37
2022-12-11T10:10:04.254Z,94.22
2022-12-11T10:12:03.699Z,94.54
2022-12-11T10:13:47.603Z,94.16
2022-12-11T10:15:40.760Z,94.28
2022-12-11T10:17:13.883Z,95.00
2022-12-11T10:18:46.907Z,94.21
2022-12-11T10:20:31.545Z,93.74
2022-12-11T10:22:03.891Z,93.77
2022-12-11T10:25:33.336Z,92.63
2022-12-11T10:27:20.312Z,92.80
2022-12-11T10:28:52.416Z,92.43
2022-12-11T10:30:34.515Z,91.78
2022-12-11T10:32:16.412Z,92.79
2022-12-11T10:34:02.873Z,92.75
2022-12-11T10:36:01.038Z,92.86
2022-12-11T10:37:33.488Z,93.40
2022-12-11T10:39:26.096Z,94.00
2022-12-11T10:41:04.589Z,94.93
2022-12-11T10:42:41.284Z,93.90
2022-12-11T10:44:29.888Z,93.33
2022-12-11T10:46:02.211Z,94.04
2022-12-11T10:47:34.475Z,95.29
2022-12-11T10:49:06.498Z,95.45
2022-12-11T10:50:38.901Z,95.94
2022-12-11T10:52:13.725Z,95.90
2022-12-11T10:53:58.719Z,96.27
2022-12-11T10:55:48.851Z,95.99
2022-12-11T10:58:53.880Z,96.19
2022-12-11T11:00:41.924Z,95.51
2022-12-11T11:02:36.237Z,95.72
2022-12-11T11:04:16.418Z,96.19
2022-12-11T11:05:49.623Z,95.12
2022-12-11T11:07:29.205Z,95.44
2022-12-11T11:09:02.031Z,95.27
2022-12-11T11:10:34.093Z,95.20
2022-12-11T11:12:25.019Z,95.46
2022-12-11T11:14:08.954Z,95.33
2022-12-11T11:15:40.938Z,95.13
2022-12-11T11:17:17.460Z,95.50
2022-12-11T11:18:55.008Z,95.43
2022-12-11T11:20:29.646Z,95.42
2022-12-11T11:22:06.244Z,95.32
2022-12-11T11:23:45.476Z,95.24
2022-12-11T11:25:22.109Z,95.32
2022-12-11T11:27:12.698Z,94.72
2022-12-11T11:28:50.324Z,94.48
2022-12-11T11:30:29.297Z,94.43
2022-12-11T11:33:35.737Z,95.29
2022-12-11T11:35:13.938Z,95.66
2022-12-11T11:36:56.618Z,95.95
2022-12-11T11:38:34.769Z,96.03
2022-12-11T11:40:15.736Z,97.13
2022-12-11T11:41:59.147Z,96.64
2022-12-11T11:43:41.171Z,96.24
2022-12-11T11:45:17.485Z,96.91
2022-12-11T11:47:04.362Z,96.36
2022-12-11T11:48:39.190Z,95.79
2022-12-11T11:50:18.500Z,95.28
2022-12-11T11:52:01.552Z,95.55
2022-12-11T11:53:38.419Z,95.46
2022-12-11T11:55:22.597Z,94.61
2022-12-11T11:56:56.645Z,94.71
2022-12-11T11:58:38.921Z,94.77
2022-12-11T12:00:27.587Z,94.62
2022-12-11T12:02:14.635Z,94.43
2022-12-11T12:03:48.597Z,94.67
2022-12-11T12:05:56.019Z,94.99
2022-12-11T12:07:43.703Z,95.38
2022-12-11T12:09:38.422Z,95.34
2022-12-11T12:11:23.009Z,95.20
2022-12-11T12:13:23.891Z,95.58
2022-12-11T12:15:22.254Z,95.91
2022-12-11T12:17:10.013Z,95.99
2022-12-11T12:18:44.673Z,95.85
2022-12-11T12:20:34.866Z,95.90
2022-12-11T12:22:31.656Z,95.73
2022-12-11T12:24:06.907Z,95.90
2022-12-11T12:25:43.104Z,95.99
2022-12-11T12:27:54.521Z,96.09
2022-12-11T12:29:56.112Z,95.66
2022-12-11T12:33:26.149Z,95.70
2022-12-11T12:35:03.795Z,95.88
2022-12-11T12:36:44.647Z,95.95
2022-12-11T12:38:35.551Z,95.94
2022-12-11T12:40:28.915Z,96.00
2022-12-11T12:42:44.247Z,96.05
2022-12-11T12:44:18.584Z,96.04
2022-12-11T12:46:00.659Z,96.15
2022-12-11T12:47:34.099Z,96.53
2022-12-11T12:49:12.796Z,96.50
2022-12-11T12:50:48.269Z,96.57
2022-12-11T12:52:39.626Z,96.33
2022-12-11T12:54:15.066Z,96.47
2022-12-11T12:55:48.755Z,96.37
2022-12-11T12:57:21.825Z,96.14
2022-12-11T12:58:53.910Z,96.01
2022-12-11T13:00:40.636Z,95.76
2022-12-11T13:02:14.524Z,95.74
2022-12-11T13:03:55.665Z,95.77
2022-12-11T13:05:30.232Z,95.62
2022-12-11T13:07:24.862Z,95.89
2022-12-11T13:08:56.959Z,95.77
2022-12-11T13:10:34.500Z,96.02
2022-12-11T13:12:15.043Z,95.92
2022-12-11T13:14:08.919Z,95.86
2022-12-11T13:15:45.343Z,95.71
2022-12-11T13:17:23.445Z,95.29
2022-12-11T13:18:55.388Z,95.06
2022-12-11T13:20:30.049Z,95.36
2022-12-11T13:22:22.018Z,95.21
2022-12-11T13:23:54.305Z,95.64
2022-12-11T13:25:29.516Z,95.35
2022-12-11T13:27:12.762Z,95.75
2022-12-11T13:28:44.925Z,95.65
2022-12-11T13:30:19.817Z,95.99
2022-12-11T13:31:59.518Z,95.98
2022-12-11T13:33:32.770Z,95.98
2022-12-11T13:35:06.873Z,96.49
2022-12-11T13:36:40.503Z,96.32
2022-12-11T13:38:17.853Z,96.14
2022-12-11T13:39:49.946Z,96.14
2022-12-11T13:41:22.044Z,96.28
2022-12-11T13:43:05.723Z,96.09
2022-12-11T13:44:41.031Z,96.20
2022-12-11T13:46:16.447Z,96.29
2022-12-11T13:47:48.621Z,96.17
2022-12-11T13:49:26.833Z,96.51
2022-12-11T13:50:59.717Z,96.39
2022-12-11T13:52:32.990Z,96.44
2022-12-11T13:54:20.005Z,96.60
2022-12-11T13:56:02.377Z,96.37
2022-12-11T13:57:34.419Z,96.59
2022-12-11T13:59:06.599Z,96.52
2022-12-11T14:00:38.669Z,96.51
2022-12-11T14:02:36.124Z,96.48
2022-12-11T14:04:14.396Z,96.70
2022-12-11T14:05:46.473Z,96.45
2022-12-11T14:07:37.058Z,96.58
2022-12-11T14:09:09.329Z,96.70
2022-12-11T14:10:41.420Z,96.41
2022-12-11T14:12:19.562Z,96.67
2022-12-11T14:13:51.567Z,96.72
2022-12-11T14:15:24.044Z,96.53
2022-12-11T14:16:56.310Z,96.69
2022-12-11T14:18:31.106Z,96.71
2022-12-11T14:20:08.512Z,96.71
2022-12-11T14:21:40.630Z,96.73
2022-12-11T14:23:22.836Z,96.40
2022-12-11T14:24:57.849Z,96.35
2022-12-11T14:26:32.615Z,96.27
2022-12-11T14:28:04.803Z,96.16
2022-12-11T14:29:36.889Z,96.10
2022-12-11T14:31:09.563Z,96.07
2022-12-11T14:32:45.010Z,95.64
2022-12-11T14:34:25.671Z,95.74
2022-12-11T14:35:58.233Z,95.58
2022-12-11T14:37:30.628Z,95.74
2022-12-11T14:40:54.030Z,96.10
2022-12-11T14:42:31.658Z,96.01
2022-12-11T14:44:05.719Z,95.85
2022-12-11T14:45:41.331Z,95.91
2022-12-11T14:47:26.347Z,95.38
2022-12-11T14:49:02.928Z,95.30
2022-12-11T14:50:47.819Z,95.11
2022-12-11T14:52:27.892Z,94.87
2022-12-11T14:54:00.281Z,94.85
2022-12-11T14:55:35.440Z,95.07
2022-12-11T14:57:08.252Z,95.33
2022-12-11T14:58:45.861Z,95.29
2022-12-11T15:00:29.532Z,94.97
2022-12-11T15:02:24.825Z,94.79
2022-12-11T15:04:20.634Z,94.87
2022-12-11T15:05:58.184Z,94.50
2022-12-11T15:07:30.199Z,94.33
2022-12-11T15:15:33.586Z,93.67
2022-12-11T15:17:13.009Z,93.53
2022-12-11T15:18:49.272Z,92.63
2022-12-11T15:20:31.447Z,92.31
2022-12-11T15:22:05.082Z,91.98
2022-12-11T15:23:45.942Z,91.99
2022-12-11T15:25:29.172Z,92.55
2022-12-11T15:27:01.621Z,92.50
2022-12-11T15:28:38.298Z,92.13
2022-12-11T15:30:28.659Z,92.40
2022-12-11T15:32:11.259Z,92.13
2022-12-11T15:33:48.184Z,92.04
2022-12-11T15:35:24.362Z,91.97
2022-12-11T15:36:56.425Z,92.01
2022-12-11T15:38:31.701Z,92.00
2022-12-11T15:40:05.724Z,91.81
2022-12-11T15:41:40.587Z,91.82
2022-12-11T15:43:12.577Z,91.78
2022-12-11T15:44:44.812Z,91.76
2022-12-11T15:46:19.751Z,91.85
2022-12-11T15:47:52.977Z,91.49
2022-12-11T15:49:25.086Z,91.52
2022-12-11T15:50:57.465Z,91.91
2022-12-11T15:52:29.565Z,92.10
2022-12-11T15:54:01.523Z,92.11
2022-12-11T15:55:35.354Z,92.39
2022-12-11T15:57:14.876Z,92.12
2022-12-11T15:58:51.953Z,92.30
2022-12-11T16:00:24.395Z,92.47
2022-12-11T16:01:56.467Z,92.36
2022-12-11T16:03:28.530Z,92.30
2022-12-11T16:05:00.511Z,92.40
2022-12-11T16:06:35.580Z,92.63
2022-12-11T16:08:08.239Z,92.09
2022-12-11T16:09:40.446Z,92.23
2022-12-11T16:11:14.068Z,92.56
2022-12-11T16:12:46.034Z,92.25
2022-12-11T16:14:18.051Z,92.33
2022-12-11T16:15:51.777Z,92.43
2022-12-11T16:17:24.051Z,92.24
2022-12-11T16:18:56.138Z,92.17
2022-12-11T16:20:28.550Z,92.12
2022-12-11T16:22:00.774Z,92.25
2022-12-11T16:23:32.840Z,92.06
2022-12-11T16:25:05.314Z,91.81
2022-12-11T16:26:37.302Z,91.60
2022-12-11T16:28:09.786Z,92.01
2022-12-11T16:29:42.326Z,92.04
2022-12-11T16:31:15.449Z,92.09
2022-12-11T16:32:47.523Z,92.21
2022-12-11T16:34:19.645Z,92.42
2022-12-11T16:35:52.668Z,92.19
2022-12-11T16:37:24.743Z,92.25
2022-12-11T16:38:57.144Z,92.40
2022-12-11T16:40:29.253Z,92.50
2022-12-11T16:42:01.314Z,92.51
2022-12-11T16:43:33.550Z,92.62
2022-12-11T16:45:08.892Z,92.71
2022-12-11T16:46:41.168Z,92.90
2022-12-11T16:48:13.183Z,93.15
2022-12-11T16:49:45.571Z,93.14
2022-12-11T16:51:18.301Z,93.14
2022-12-11T16:52:50.426Z,93.28
2022-12-11T16:54:22.440Z,93.36
2022-12-11T16:55:54.509Z,93.39
2022-12-11T16:57:26.640Z,93.21
2022-12-11T16:58:58.681Z,93.29
2022-12-11T17:00:30.597Z,93.48
2022-12-11T17:02:02.556Z,93.54
2022-12-11T17:03:34.562Z,93.41
2022-12-11T17:05:06.785Z,93.59
2022-12-11T17:06:38.840Z,93.55
2022-12-11T17:08:10.907Z,93.89
2022-12-11T17:09:43.387Z,93.93
2022-12-11T17:11:18.133Z,94.00
2022-12-11T17:12:50.133Z,94.02
2022-12-11T17:14:22.141Z,94.14
2022-12-11T17:15:54.206Z,94.05
2022-12-11T17:17:26.498Z,94.28
2022-12-11T17:18:58.714Z,94.19
2022-12-11T17:20:30.809Z,94.14
2022-12-11T17:22:03.051Z,94.23
2022-12-11T17:23:35.832Z,94.36
2022-12-11T17:25:08.220Z,94.72
2022-12-11T17:26:41.810Z,94.56
2022-12-11T17:28:13.944Z,94.44
2022-12-11T17:29:46.201Z,94.40
2022-12-11T17:31:19.314Z,94.19
2022-12-11T17:34:24.239Z,94.16
2022-12-11T17:35:56.442Z,93.84
2022-12-11T17:37:28.427Z,93.95
2022-12-11T17:39:00.549Z,94.06
2022-12-11T17:40:32.623Z,93.87
2022-12-11T17:42:04.828Z,93.99
2022-12-11T17:43:37.036Z,93.86
2022-12-11T17:45:09.516Z,94.21
2022-12-11T17:46:41.835Z,94.25
2022-12-11T17:48:15.106Z,94.00
2022-12-11T17:49:47.311Z,94.21
2022-12-11T17:51:24.742Z,94.11
2022-12-11T17:52:58.006Z,94.24
2022-12-11T17:54:30.047Z,94.59
2022-12-11T17:56:03.974Z,94.33
2022-12-11T17:57:38.298Z,94.57
2022-12-11T17:59:10.417Z,94.47
2022-12-11T18:00:44.835Z,94.73
2022-12-11T18:02:19.957Z,94.79
2022-12-11T18:03:52.068Z,94.62
2022-12-11T18:05:25.522Z,94.65
2022-12-11T18:06:57.505Z,94.62
2022-12-11T18:08:30.513Z,94.86
2022-12-11T18:10:02.726Z,95.03
2022-12-11T18:11:35.193Z,95.00
2022-12-11T18:13:07.508Z,95.15
2022-12-11T18:14:39.692Z,95.15
2022-12-11T18:16:19.897Z,95.12
2022-12-11T18:17:52.061Z,95.16
2022-12-11T18:19:25.688Z,94.99
2022-12-11T18:20:57.803Z,95.09
2022-12-11T18:22:29.891Z,94.86
2022-12-11T18:24:02.499Z,94.92
2022-12-11T18:25:34.687Z,94.79
2022-12-11T18:27:10.592Z,94.81
2022-12-11T18:28:43.034Z,94.61
2022-12-11T18:30:15.380Z,94.55
2022-12-11T18:31:47.550Z,94.63
2022-12-11T18:33:19.705Z,94.46
2022-12-11T18:34:51.792Z,94.54
2022-12-11T18:36:23.872Z,94.47
2022-12-11T18:37:56.141Z,94.57
2022-12-11T18:39:28.154Z,94.67
2022-12-11T18:41:04.273Z,94.56
2022-12-11T18:42:36.512Z,94.76
2022-12-11T18:44:10.138Z,94.43
2022-12-11T18:45:45.527Z,94.42
2022-12-11T18:49:02.264Z,94.46
2022-12-11T18:50:35.112Z,94.32
2022-12-11T18:52:07.271Z,94.34
2022-12-11T18:53:41.161Z,94.21
2022-12-11T18:55:13.292Z,94.10
2022-12-11T18:56:48.407Z,94.01
2022-12-11T18:58:20.910Z,93.58
2022-12-11T18:59:53.763Z,93.45
2022-12-11T19:01:29.157Z,93.43
2022-12-11T19:03:02.414Z,93.17
2022-12-11T19:04:36.521Z,93.18
2022-12-11T19:06:15.043Z,93.15
2022-12-11T19:07:47.128Z,93.37
2022-12-11T19:09:19.269Z,93.54
2022-12-11T19:10:53.784Z,93.79
2022-12-11T19:12:25.967Z,93.68
2022-12-11T19:13:58.413Z,93.52
2022-12-11T19:15:30.411Z,93.71
2022-12-11T19:17:03.496Z,93.39
2022-12-11T19:18:37.802Z,93.43
2022-12-11T19:20:40.254Z,93.66
2022-12-11T19:22:02.682Z,93.61
2022-12-11T19:23:34.712Z,93.70
2022-12-11T19:25:07.537Z,93.99
2022-12-11T19:26:39.645Z,94.00
2022-12-11T19:28:12.002Z,94.20
2022-12-11T19:29:44.085Z,94.31
2022-12-11T19:31:21.246Z,93.93
2022-12-11T19:32:53.213Z,94.13
2022-12-11T19:34:25.571Z,94.32
2022-12-11T19:36:05.595Z,94.08
2022-12-11T19:37:37.581Z,93.86
2022-12-11T19:39:13.193Z,94.03
2022-12-11T19:40:45.851Z,93.91
2022-12-11T19:42:20.167Z,94.17
2022-12-11T19:43:52.167Z,93.95
2022-12-11T19:45:24.130Z,93.95
2022-12-11T19:46:56.202Z,93.96
2022-12-11T19:48:30.744Z,93.79
2022-12-11T19:50:02.814Z,94.00
2022-12-11T19:51:38.803Z,93.64
2022-12-11T19:53:10.916Z,93.88
2022-12-11T19:54:42.933Z,93.90
2022-12-11T19:56:15.691Z,93.79
2022-12-11T19:57:48.056Z,93.71
2022-12-11T19:59:20.069Z,93.77
2022-12-11T20:00:52.223Z,93.62
2022-12-11T20:02:24.344Z,93.69
2022-12-11T20:03:58.858Z,93.84
2022-12-11T20:05:30.876Z,93.58
2022-12-11T20:07:02.997Z,93.38
2022-12-11T20:08:44.519Z,93.56
2022-12-11T20:10:17.546Z,93.48
2022-12-11T20:11:49.751Z,93.35
2022-12-11T20:13:21.947Z,93.39
2022-12-11T20:14:53.928Z,93.63
2022-12-11T20:16:46.379Z,93.63
2022-12-11T20:18:18.818Z,93.67
2022-12-11T20:19:51.977Z,93.61
2022-12-11T20:23:01.256Z,93.97
2022-12-11T20:24:33.583Z,93.70
2022-12-11T20:26:11.033Z,93.90
2022-12-11T20:27:43.226Z,93.64
2022-12-11T20:29:15.488Z,93.80
2022-12-11T20:30:49.065Z,93.73
2022-12-11T20:32:20.881Z,93.48
2022-12-11T20:33:54.019Z,93.64
2022-12-11T20:35:26.950Z,93.35
2022-12-11T20:37:00.552Z,93.50
2022-12-11T20:38:34.549Z,93.13
2022-12-11T20:40:07.620Z,93.08
2022-12-11T20:41:39.832Z,92.99
2022-12-11T20:43:11.856Z,93.25
2022-12-11T20:44:48.740Z,93.22
2022-12-11T20:46:23.814Z,93.30
2022-12-11T20:47:55.742Z,93.35
2022-12-11T20:49:27.851Z,93.33
2022-12-11T20:52:31.707Z,93.22
2022-12-11T20:54:03.860Z,93.32
2022-12-11T20:55:42.439Z,93.67